Eheart, Virginia
Current Conditions -  °F | °C
As of 12:35 PM on Tuesday 21 Oct 2014 (Local Time) from KGVE Reporting Station
Scattered Clouds Scattered Clouds  
Wind Chill: 67°   Ceiling: Unl
Heat Index: 67°   Visibility: 10mi
Dew Point: 48°   Wind: 5mph
Humidity: 50%   Direction: 230°SW
Pressure: 29.85"   Gusts: NA
Location:  38.2068°N, 78.3055°W
Report Text: KGVE 211635Z AUTO 23004KT 10SM SCT049 20/09 A2985 RMK AO1 P0001 T01970089
Loading
Personal Weather Stations






























Interactive Weather Map
Tropical Storm Tracking
New forecast layout! Learn more

10-Day Weather Forecast

Advertisements
Track Severe Weather on mobile